sensor_id;sensor_type;location;lat;lon;timestamp;pressure;altitude;pressure_sealevel;temperature;humidity
10462;BME280;5278;42.656;23.374;2023-05-25T00:01:04;94579.66;;;18.76;76.78
10462;BME280;5278;42.656;23.374;2023-05-25T00:03:32;94584.22;;;18.69;77.41
10462;BME280;5278;42.656;23.374;2023-05-25T00:06:00;94579.63;;;18.64;77.98
10462;BME280;5278;42.656;23.374;2023-05-25T00:08:27;94538.06;;;18.25;78.26
10462;BME280;5278;42.656;23.374;2023-05-25T00:10:54;94588.13;;;18.48;78.86
10462;BME280;5278;42.656;23.374;2023-05-25T00:13:21;94586.66;;;18.52;79.31
10462;BME280;5278;42.656;23.374;2023-05-25T00:15:48;94589.97;;;18.47;79.64
10462;BME280;5278;42.656;23.374;2023-05-25T00:18:17;94582.50;;;18.44;80.26
10462;BME280;5278;42.656;23.374;2023-05-25T00:20:44;94583.19;;;18.40;80.47
10462;BME280;5278;42.656;23.374;2023-05-25T00:23:11;94590.59;;;18.31;80.98
10462;BME280;5278;42.656;23.374;2023-05-25T00:25:38;94591.81;;;18.29;81.22
10462;BME280;5278;42.656;23.374;2023-05-25T00:28:05;94600.91;;;18.15;81.54
10462;BME280;5278;42.656;23.374;2023-05-25T00:30:32;94596.53;;;18.08;82.20
10462;BME280;5278;42.656;23.374;2023-05-25T00:32:59;94596.97;;;18.05;82.58
10462;BME280;5278;42.656;23.374;2023-05-25T00:35:29;94594.41;;;17.99;82.64
10462;BME280;5278;42.656;23.374;2023-05-25T00:37:56;94597.28;;;17.97;83.10
10462;BME280;5278;42.656;23.374;2023-05-25T00:40:23;94599.91;;;17.97;83.29
10462;BME280;5278;42.656;23.374;2023-05-25T00:42:50;94597.84;;;17.99;83.21
10462;BME280;5278;42.656;23.374;2023-05-25T00:45:18;94608.81;;;17.96;83.37
10462;BME280;5278;42.656;23.374;2023-05-25T00:47:49;94606.06;;;17.91;83.64
10462;BME280;5278;42.656;23.374;2023-05-25T00:50:17;94600.78;;;17.91;83.17
10462;BME280;5278;42.656;23.374;2023-05-25T00:52:48;94602.81;;;17.89;83.57
10462;BME280;5278;42.656;23.374;2023-05-25T00:55:17;94605.03;;;17.92;83.47
10462;BME280;5278;42.656;23.374;2023-05-25T00:57:46;94609.63;;;17.97;83.34
10462;BME280;5278;42.656;23.374;2023-05-25T01:00:17;94604.44;;;17.90;83.19
10462;BME280;5278;42.656;23.374;2023-05-25T01:02:45;94598.81;;;17.87;83.48
10462;BME280;5278;42.656;23.374;2023-05-25T01:05:18;94613.06;;;17.79;83.73
10462;BME280;5278;42.656;23.374;2023-05-25T01:07:45;94611.47;;;17.78;82.99
10462;BME280;5278;42.656;23.374;2023-05-25T01:10:15;94609.06;;;17.77;82.41
10462;BME280;5278;42.656;23.374;2023-05-25T01:12:43;94612.91;;;17.74;82.35
10462;BME280;5278;42.656;23.374;2023-05-25T01:15:11;94607.50;;;17.69;82.08
10462;BME280;5278;42.656;23.374;2023-05-25T01:17:39;94613.13;;;17.73;81.86
10462;BME280;5278;42.656;23.374;2023-05-25T01:20:08;94610.13;;;17.69;81.88
10462;BME280;5278;42.656;23.374;2023-05-25T01:22:41;94611.94;;;17.69;81.64
10462;BME280;5278;42.656;23.374;2023-05-25T01:25:12;94605.91;;;17.68;81.66
10462;BME280;5278;42.656;23.374;2023-05-25T01:27:43;94584.25;;;17.48;82.05
10462;BME280;5278;42.656;23.374;2023-05-25T01:30:13;94601.94;;;17.59;82.25
10462;BME280;5278;42.656;23.374;2023-05-25T01:32:42;94603.56;;;17.60;82.32
10462;BME280;5278;42.656;23.374;2023-05-25T01:35:11;94604.97;;;17.62;82.06
10462;BME280;5278;42.656;23.374;2023-05-25T01:37:46;94599.69;;;17.62;82.15
10462;BME280;5278;42.656;23.374;2023-05-25T01:40:14;94598.09;;;17.61;82.25
10462;BME280;5278;42.656;23.374;2023-05-25T01:42:41;94585.56;;;17.57;81.89
10462;BME280;5278;42.656;23.374;2023-05-25T01:45:10;94582.81;;;17.52;81.91
10462;BME280;5278;42.656;23.374;2023-05-25T01:47:45;94582.19;;;17.50;82.32
10462;BME280;5278;42.656;23.374;2023-05-25T01:50:22;94570.88;;;17.49;82.55
10462;BME280;5278;42.656;23.374;2023-05-25T01:52:56;94584.81;;;17.50;82.69
10462;BME280;5278;42.656;23.374;2023-05-25T01:55:27;94583.97;;;17.38;83.20
10462;BME280;5278;42.656;23.374;2023-05-25T01:57:55;94583.00;;;17.32;83.65
10462;BME280;5278;42.656;23.374;2023-05-25T02:00:26;94589.06;;;17.33;83.75
10462;BME280;5278;42.656;23.374;2023-05-25T02:02:56;94561.47;;;16.99;84.45
10462;BME280;5278;42.656;23.374;2023-05-25T02:05:23;94589.31;;;17.25;84.62
10462;BME280;5278;42.656;23.374;2023-05-25T02:07:53;94599.47;;;17.21;84.73
10462;BME280;5278;42.656;23.374;2023-05-25T02:10:20;94596.63;;;17.23;84.72
10462;BME280;5278;42.656;23.374;2023-05-25T02:12:48;94587.94;;;17.22;85.01
10462;BME280;5278;42.656;23.374;2023-05-25T02:15:17;94595.66;;;17.17;84.98
10462;BME280;5278;42.656;23.374;2023-05-25T02:17:44;94598.34;;;17.10;84.63
10462;BME280;5278;42.656;23.374;2023-05-25T02:20:12;94572.53;;;16.83;84.82
10462;BME280;5278;42.656;23.374;2023-05-25T02:22:40;94601.94;;;16.91;85.05
10462;BME280;5278;42.656;23.374;2023-05-25T02:25:11;94606.56;;;16.89;84.61
10462;BME280;5278;42.656;23.374;2023-05-25T02:27:38;94612.25;;;16.86;84.52
10462;BME280;5278;42.656;23.374;2023-05-25T02:30:06;94610.66;;;16.85;84.24
10462;BME280;5278;42.656;23.374;2023-05-25T02:32:34;94616.91;;;16.84;83.46
10462;BME280;5278;42.656;23.374;2023-05-25T02:35:01;94622.00;;;16.79;83.27
10462;BME280;5278;42.656;23.374;2023-05-25T02:37:29;94616.56;;;16.74;82.37
10462;BME280;5278;42.656;23.374;2023-05-25T02:39:56;94624.88;;;16.71;81.79
10462;BME280;5278;42.656;23.374;2023-05-25T02:42:25;94626.28;;;16.73;81.25
10462;BME280;5278;42.656;23.374;2023-05-25T02:44:52;94635.38;;;16.71;81.45
10462;BME280;5278;42.656;23.374;2023-05-25T02:47:20;94629.34;;;16.64;81.81
10462;BME280;5278;42.656;23.374;2023-05-25T02:49:47;94646.25;;;16.74;82.35
10462;BME280;5278;42.656;23.374;2023-05-25T02:52:14;94642.41;;;16.77;83.32
10462;BME280;5278;42.656;23.374;2023-05-25T02:54:41;94646.88;;;16.70;84.23
10462;BME280;5278;42.656;23.374;2023-05-25T02:57:08;94669.66;;;16.76;84.82
10462;BME280;5278;42.656;23.374;2023-05-25T02:59:37;94647.28;;;16.73;85.05
10462;BME280;5278;42.656;23.374;2023-05-25T03:02:05;94645.88;;;16.71;85.21
10462;BME280;5278;42.656;23.374;2023-05-25T03:04:32;94646.25;;;16.74;85.34
10462;BME280;5278;42.656;23.374;2023-05-25T03:07:02;94558.00;;;16.17;85.50
10462;BME280;5278;42.656;23.374;2023-05-25T03:09:29;94633.66;;;16.58;85.85
10462;BME280;5278;42.656;23.374;2023-05-25T03:11:56;94656.97;;;16.73;85.71
10462;BME280;5278;42.656;23.374;2023-05-25T03:14:25;94656.97;;;16.73;86.03
10462;BME280;5278;42.656;23.374;2023-05-25T03:16:53;94633.81;;;16.57;84.62
10462;BME280;5278;42.656;23.374;2023-05-25T03:19:20;94662.38;;;16.78;83.11
10462;BME280;5278;42.656;23.374;2023-05-25T03:21:47;94659.34;;;16.74;82.57
10462;BME280;5278;42.656;23.374;2023-05-25T03:24:14;94653.13;;;16.69;82.96
10462;BME280;5278;42.656;23.374;2023-05-25T03:26:41;94649.97;;;16.60;82.54
10462;BME280;5278;42.656;23.374;2023-05-25T03:29:08;94655.41;;;16.59;82.13
10462;BME280;5278;42.656;23.374;2023-05-25T03:31:35;94660.25;;;16.62;81.26
10462;BME280;5278;42.656;23.374;2023-05-25T03:34:03;94666.47;;;16.67;80.81
10462;BME280;5278;42.656;23.374;2023-05-25T03:36:31;94653.59;;;16.59;80.37
10462;BME280;5278;42.656;23.374;2023-05-25T03:38:58;94665.00;;;16.78;79.83
10462;BME280;5278;42.656;23.374;2023-05-25T03:41:25;94662.56;;;16.83;79.70
10462;BME280;5278;42.656;23.374;2023-05-25T03:43:53;94647.03;;;16.75;79.78
10462;BME280;5278;42.656;23.374;2023-05-25T03:46:20;94667.19;;;16.88;79.65
10462;BME280;5278;42.656;23.374;2023-05-25T03:48:47;94661.84;;;16.94;79.53
10462;BME280;5278;42.656;23.374;2023-05-25T03:51:15;94659.84;;;16.96;79.34
10462;BME280;5278;42.656;23.374;2023-05-25T03:53:43;94657.38;;;17.01;79.13
10462;BME280;5278;42.656;23.374;2023-05-25T03:56:10;94665.22;;;17.08;79.24
10462;BME280;5278;42.656;23.374;2023-05-25T03:58:37;94625.38;;;16.86;79.01
10462;BME280;5278;42.656;23.374;2023-05-25T04:01:05;94668.38;;;17.16;78.85
10462;BME280;5278;42.656;23.374;2023-05-25T04:03:34;94669.72;;;17.26;78.56
10462;BME280;5278;42.656;23.374;2023-05-25T04:06:01;94612.16;;;16.99;78.10
10462;BME280;5278;42.656;23.374;2023-05-25T04:08:32;94664.66;;;17.49;77.87
10462;BME280;5278;42.656;23.374;2023-05-25T04:10:58;94621.28;;;17.21;77.70
10462;BME280;5278;42.656;23.374;2023-05-25T04:13:25;94680.44;;;17.74;76.96
10462;BME280;5278;42.656;23.374;2023-05-25T04:15:53;94685.22;;;18.01;75.43
10462;BME280;5278;42.656;23.374;2023-05-25T04:18:20;94683.75;;;18.24;74.36
10462;BME280;5278;42.656;23.374;2023-05-25T04:20:47;94678.69;;;18.59;72.44
10462;BME280;5278;42.656;23.374;2023-05-25T04:23:14;94682.13;;;18.89;70.61
10462;BME280;5278;42.656;23.374;2023-05-25T04:25:46;94686.22;;;19.15;69.13
10462;BME280;5278;42.656;23.374;2023-05-25T04:28:15;94681.56;;;19.40;68.07
10462;BME280;5278;42.656;23.374;2023-05-25T04:30:43;94682.22;;;19.65;66.78
10462;BME280;5278;42.656;23.374;2023-05-25T04:33:09;94661.34;;;19.75;65.53
10462;BME280;5278;42.656;23.374;2023-05-25T04:35:37;94693.41;;;20.19;64.56
10462;BME280;5278;42.656;23.374;2023-05-25T04:38:05;94690.44;;;20.27;63.82
10462;BME280;5278;42.656;23.374;2023-05-25T04:40:32;94678.94;;;20.33;63.49
10462;BME280;5278;42.656;23.374;2023-05-25T04:43:01;94707.16;;;20.56;64.05
10462;BME280;5278;42.656;23.374;2023-05-25T04:45:29;94685.13;;;20.79;63.62
10462;BME280;5278;42.656;23.374;2023-05-25T04:47:57;94700.03;;;21.13;61.75
10462;BME280;5278;42.656;23.374;2023-05-25T04:50:26;94694.09;;;21.34;61.00
10462;BME280;5278;42.656;23.374;2023-05-25T04:52:53;94690.47;;;21.74;60.20
10462;BME280;5278;42.656;23.374;2023-05-25T04:55:20;94694.25;;;22.11;58.40
10462;BME280;5278;42.656;23.374;2023-05-25T04:57:47;94683.09;;;22.53;57.86
10462;BME280;5278;42.656;23.374;2023-05-25T05:00:16;94680.31;;;22.81;55.72
10462;BME280;5278;42.656;23.374;2023-05-25T05:02:45;94674.75;;;23.09;54.90
10462;BME280;5278;42.656;23.374;2023-05-25T05:05:11;94678.72;;;23.39;53.32
10462;BME280;5278;42.656;23.374;2023-05-25T05:07:38;94660.03;;;23.50;52.99
10462;BME280;5278;42.656;23.374;2023-05-25T05:10:07;94670.59;;;23.82;51.73
10462;BME280;5278;42.656;23.374;2023-05-25T05:12:34;94661.75;;;24.09;50.56
10462;BME280;5278;42.656;23.374;2023-05-25T05:15:01;94674.78;;;24.62;49.17
10462;BME280;5278;42.656;23.374;2023-05-25T05:17:29;94666.94;;;24.98;48.09
10462;BME280;5278;42.656;23.374;2023-05-25T05:19:56;94667.00;;;25.38;46.96
10462;BME280;5278;42.656;23.374;2023-05-25T05:22:23;94663.28;;;25.90;45.65
10462;BME280;5278;42.656;23.374;2023-05-25T05:24:51;94669.63;;;26.34;44.60
10462;BME280;5278;42.656;23.374;2023-05-25T05:27:18;94676.63;;;26.84;43.56
10462;BME280;5278;42.656;23.374;2023-05-25T05:29:45;94677.75;;;27.22;43.17
10462;BME280;5278;42.656;23.374;2023-05-25T05:32:13;94681.56;;;27.55;41.58
10462;BME280;5278;42.656;23.374;2023-05-25T05:34:42;94673.47;;;27.65;41.54
10462;BME280;5278;42.656;23.374;2023-05-25T05:37:11;94679.88;;;27.69;41.80
10462;BME280;5278;42.656;23.374;2023-05-25T05:39:38;94670.25;;;27.68;41.47
10462;BME280;5278;42.656;23.374;2023-05-25T05:42:06;94682.81;;;27.97;41.14
10462;BME280;5278;42.656;23.374;2023-05-25T05:44:34;94690.41;;;28.18;40.47
10462;BME280;5278;42.656;23.374;2023-05-25T05:47:02;94690.13;;;28.44;39.94
10462;BME280;5278;42.656;23.374;2023-05-25T05:49:30;94692.06;;;28.86;39.30
10462;BME280;5278;42.656;23.374;2023-05-25T05:52:02;94690.88;;;29.16;38.09
10462;BME280;5278;42.656;23.374;2023-05-25T05:54:31;94691.84;;;29.43;37.76
10462;BME280;5278;42.656;23.374;2023-05-25T05:56:58;94696.34;;;29.80;37.23
10462;BME280;5278;42.656;23.374;2023-05-25T05:59:25;94695.41;;;29.90;36.68
10462;BME280;5278;42.656;23.374;2023-05-25T06:01:52;94695.34;;;29.95;36.67
10462;BME280;5278;42.656;23.374;2023-05-25T06:04:19;94690.25;;;30.26;36.21
10462;BME280;5278;42.656;23.374;2023-05-25T06:06:49;94693.56;;;30.50;35.24
10462;BME280;5278;42.656;23.374;2023-05-25T06:09:18;94685.63;;;30.72;35.58
10462;BME280;5278;42.656;23.374;2023-05-25T06:11:45;94686.22;;;30.83;35.06
10462;BME280;5278;42.656;23.374;2023-05-25T06:14:13;94688.50;;;31.17;34.44
10462;BME280;5278;42.656;23.374;2023-05-25T06:16:41;94685.59;;;31.27;34.54
10462;BME280;5278;42.656;23.374;2023-05-25T06:19:09;94690.84;;;31.54;33.62
10462;BME280;5278;42.656;23.374;2023-05-25T06:21:36;94684.50;;;31.86;33.35
10462;BME280;5278;42.656;23.374;2023-05-25T06:24:05;94683.63;;;31.99;32.80
10462;BME280;5278;42.656;23.374;2023-05-25T06:26:34;94687.94;;;32.31;32.48
10462;BME280;5278;42.656;23.374;2023-05-25T06:29:01;94673.47;;;32.19;33.14
10462;BME280;5278;42.656;23.374;2023-05-25T06:31:28;94687.69;;;32.41;32.86
10462;BME280;5278;42.656;23.374;2023-05-25T06:33:55;94695.13;;;32.75;32.20
10462;BME280;5278;42.656;23.374;2023-05-25T06:36:22;94676.56;;;32.74;31.91
10462;BME280;5278;42.656;23.374;2023-05-25T06:38:49;94699.16;;;33.04;32.00
10462;BME280;5278;42.656;23.374;2023-05-25T06:41:16;94650.00;;;32.81;31.60
10462;BME280;5278;42.656;23.374;2023-05-25T06:43:47;94705.25;;;33.26;30.71
10462;BME280;5278;42.656;23.374;2023-05-25T06:46:14;94690.84;;;33.22;30.85
10462;BME280;5278;42.656;23.374;2023-05-25T06:48:42;94691.47;;;33.45;30.12
10462;BME280;5278;42.656;23.374;2023-05-25T06:51:10;94694.06;;;33.67;30.35
10462;BME280;5278;42.656;23.374;2023-05-25T06:53:36;94704.50;;;33.86;30.30
10462;BME280;5278;42.656;23.374;2023-05-25T06:56:04;94675.75;;;33.99;29.51
10462;BME280;5278;42.656;23.374;2023-05-25T06:58:31;94695.28;;;34.22;29.73
10462;BME280;5278;42.656;23.374;2023-05-25T07:01:01;94707.56;;;34.57;29.63
10462;BME280;5278;42.656;23.374;2023-05-25T07:03:28;94691.94;;;34.63;29.08
10462;BME280;5278;42.656;23.374;2023-05-25T07:05:55;94694.81;;;34.66;28.56
10462;BME280;5278;42.656;23.374;2023-05-25T07:08:22;94689.50;;;34.87;28.51
10462;BME280;5278;42.656;23.374;2023-05-25T07:10:49;94688.34;;;34.96;28.59
10462;BME280;5278;42.656;23.374;2023-05-25T07:13:16;94701.25;;;35.20;28.20
10462;BME280;5278;42.656;23.374;2023-05-25T07:15:43;94682.44;;;35.24;28.13
10462;BME280;5278;42.656;23.374;2023-05-25T07:18:11;94676.25;;;35.44;28.25
10462;BME280;5278;42.656;23.374;2023-05-25T07:20:38;94674.09;;;35.37;28.15
10462;BME280;5278;42.656;23.374;2023-05-25T07:23:08;94653.78;;;34.81;28.76
10462;BME280;5278;42.656;23.374;2023-05-25T07:25:36;94628.91;;;34.03;29.55
10462;BME280;5278;42.656;23.374;2023-05-25T07:28:04;94656.56;;;34.00;29.61
10462;BME280;5278;42.656;23.374;2023-05-25T07:30:32;94683.50;;;34.26;29.86
10462;BME280;5278;42.656;23.374;2023-05-25T07:32:59;94650.03;;;34.10;29.63
10462;BME280;5278;42.656;23.374;2023-05-25T07:35:27;94686.34;;;34.30;29.69
10462;BME280;5278;42.656;23.374;2023-05-25T07:37:56;94691.97;;;33.73;30.24
10462;BME280;5278;42.656;23.374;2023-05-25T07:40:24;94681.06;;;32.96;31.50
10462;BME280;5278;42.656;23.374;2023-05-25T07:42:51;94696.69;;;32.37;32.89
10462;BME280;5278;42.656;23.374;2023-05-25T07:45:19;94692.25;;;31.66;34.47
10462;BME280;5278;42.656;23.374;2023-05-25T07:47:46;94694.84;;;30.94;35.52
10462;BME280;5278;42.656;23.374;2023-05-25T07:50:14;94657.31;;;29.93;36.91
10462;BME280;5278;42.656;23.374;2023-05-25T07:52:42;94701.31;;;29.73;37.93
10462;BME280;5278;42.656;23.374;2023-05-25T07:55:09;94713.88;;;29.17;39.57
10462;BME280;5278;42.656;23.374;2023-05-25T07:57:36;94714.41;;;28.23;41.08
10462;BME280;5278;42.656;23.374;2023-05-25T08:00:07;94693.94;;;27.36;42.77
10462;BME280;5278;42.656;23.374;2023-05-25T08:02:36;94722.81;;;26.75;45.42
10462;BME280;5278;42.656;23.374;2023-05-25T08:05:03;94727.97;;;26.05;47.93
10462;BME280;5278;42.656;23.374;2023-05-25T08:07:31;94736.69;;;25.25;50.95
10462;BME280;5278;42.656;23.374;2023-05-25T08:10:00;94751.66;;;24.27;55.44
10462;BME280;5278;42.656;23.374;2023-05-25T08:12:27;94745.19;;;23.81;57.11
10462;BME280;5278;42.656;23.374;2023-05-25T08:14:55;94746.69;;;23.18;59.17
10462;BME280;5278;42.656;23.374;2023-05-25T08:17:22;94754.78;;;23.06;61.10
10462;BME280;5278;42.656;23.374;2023-05-25T08:19:50;94759.03;;;23.07;62.29
10462;BME280;5278;42.656;23.374;2023-05-25T08:22:17;94759.31;;;23.33;61.94
10462;BME280;5278;42.656;23.374;2023-05-25T08:24:44;94759.91;;;23.67;60.25
10462;BME280;5278;42.656;23.374;2023-05-25T08:27:12;94771.81;;;23.91;59.52
10462;BME280;5278;42.656;23.374;2023-05-25T08:29:39;94790.19;;;23.97;58.91
10462;BME280;5278;42.656;23.374;2023-05-25T08:32:06;94769.63;;;24.15;58.26
10462;BME280;5278;42.656;23.374;2023-05-25T08:34:34;94781.44;;;24.29;57.57
10462;BME280;5278;42.656;23.374;2023-05-25T08:37:01;94777.22;;;24.38;57.15
10462;BME280;5278;42.656;23.374;2023-05-25T08:39:28;94786.88;;;24.49;57.16
10462;BME280;5278;42.656;23.374;2023-05-25T08:41:55;94787.22;;;24.63;56.39
10462;BME280;5278;42.656;23.374;2023-05-25T08:44:25;94795.97;;;24.58;56.10
10462;BME280;5278;42.656;23.374;2023-05-25T08:46:55;94790.41;;;24.65;56.31
10462;BME280;5278;42.656;23.374;2023-05-25T08:49:22;94782.13;;;24.56;56.27
10462;BME280;5278;42.656;23.374;2023-05-25T08:51:50;94780.38;;;24.77;55.81
10462;BME280;5278;42.656;23.374;2023-05-25T08:54:18;94795.53;;;24.81;55.66
10462;BME280;5278;42.656;23.374;2023-05-25T08:56:48;94789.78;;;24.90;55.59
10462;BME280;5278;42.656;23.374;2023-05-25T08:59:34;94799.91;;;24.98;55.38
10462;BME280;5278;42.656;23.374;2023-05-25T09:02:21;94796.69;;;24.96;55.58
10462;BME280;5278;42.656;23.374;2023-05-25T09:04:49;94806.31;;;25.02;55.86
10462;BME280;5278;42.656;23.374;2023-05-25T09:07:18;94805.81;;;25.10;55.82
10462;BME280;5278;42.656;23.374;2023-05-25T09:09:50;94792.97;;;24.97;56.18
10462;BME280;5278;42.656;23.374;2023-05-25T09:12:18;94819.13;;;25.10;56.39
10462;BME280;5278;42.656;23.374;2023-05-25T09:14:47;94815.09;;;25.07;56.69
10462;BME280;5278;42.656;23.374;2023-05-25T09:17:16;94814.63;;;25.15;56.32
10462;BME280;5278;42.656;23.374;2023-05-25T09:19:45;94810.16;;;25.36;55.89
10462;BME280;5278;42.656;23.374;2023-05-25T09:22:12;94810.44;;;25.35;55.95
10462;BME280;5278;42.656;23.374;2023-05-25T09:24:40;94804.84;;;25.46;55.87
10462;BME280;5278;42.656;23.374;2023-05-25T09:27:10;94809.69;;;25.54;55.43
10462;BME280;5278;42.656;23.374;2023-05-25T09:29:37;94800.34;;;25.52;55.56
10462;BME280;5278;42.656;23.374;2023-05-25T09:32:06;94758.53;;;25.42;55.05
10462;BME280;5278;42.656;23.374;2023-05-25T09:34:34;94793.78;;;25.64;55.15
10462;BME280;5278;42.656;23.374;2023-05-25T09:37:02;94800.69;;;25.76;55.08
10462;BME280;5278;42.656;23.374;2023-05-25T09:39:29;94786.06;;;25.93;54.58
10462;BME280;5278;42.656;23.374;2023-05-25T09:41:56;94786.88;;;25.84;54.98
10462;BME280;5278;42.656;23.374;2023-05-25T09:44:23;94777.81;;;25.95;54.74
10462;BME280;5278;42.656;23.374;2023-05-25T09:46:50;94791.66;;;26.17;54.21
10462;BME280;5278;42.656;23.374;2023-05-25T09:49:20;94784.75;;;26.31;54.26
10462;BME280;5278;42.656;23.374;2023-05-25T09:51:47;94742.38;;;26.09;54.10
10462;BME280;5278;42.656;23.374;2023-05-25T09:54:14;94773.53;;;26.49;53.86
10462;BME280;5278;42.656;23.374;2023-05-25T09:56:42;94778.31;;;26.52;54.06
10462;BME280;5278;42.656;23.374;2023-05-25T09:59:10;94770.31;;;26.63;54.86
10462;BME280;5278;42.656;23.374;2023-05-25T10:01:37;94771.91;;;26.64;53.76
10462;BME280;5278;42.656;23.374;2023-05-25T10:04:04;94763.88;;;26.74;53.60
10462;BME280;5278;42.656;23.374;2023-05-25T10:06:33;94764.34;;;26.96;53.05
10462;BME280;5278;42.656;23.374;2023-05-25T10:09:02;94757.88;;;27.12;53.08
10462;BME280;5278;42.656;23.374;2023-05-25T10:11:32;94723.53;;;26.90;53.03
10462;BME280;5278;42.656;23.374;2023-05-25T10:14:05;94756.69;;;27.38;52.99
10462;BME280;5278;42.656;23.374;2023-05-25T10:16:33;94757.47;;;27.83;51.50
10462;BME280;5278;42.656;23.374;2023-05-25T10:19:05;94754.75;;;28.51;49.03
10462;BME280;5278;42.656;23.374;2023-05-25T10:21:35;94756.78;;;29.12;46.70
10462;BME280;5278;42.656;23.374;2023-05-25T10:24:05;94748.44;;;29.56;45.73
10462;BME280;5278;42.656;23.374;2023-05-25T10:26:39;94741.34;;;30.02;45.56
10462;BME280;5278;42.656;23.374;2023-05-25T10:29:09;94731.56;;;30.71;42.45
10462;BME280;5278;42.656;23.374;2023-05-25T10:31:37;94728.78;;;31.17;41.92
10462;BME280;5278;42.656;23.374;2023-05-25T10:34:04;94723.88;;;31.33;40.07
10462;BME280;5278;42.656;23.374;2023-05-25T10:36:33;94727.19;;;31.16;40.46
10462;BME280;5278;42.656;23.374;2023-05-25T10:39:01;94696.16;;;30.83;41.22
10462;BME280;5278;42.656;23.374;2023-05-25T10:41:28;94715.66;;;30.88;41.28
10462;BME280;5278;42.656;23.374;2023-05-25T10:43:56;94705.31;;;30.82;41.21
10462;BME280;5278;42.656;23.374;2023-05-25T10:46:25;94703.72;;;30.67;41.23
10462;BME280;5278;42.656;23.374;2023-05-25T10:48:52;94694.19;;;30.47;41.69
10462;BME280;5278;42.656;23.374;2023-05-25T10:51:37;94689.63;;;30.15;42.47
10462;BME280;5278;42.656;23.374;2023-05-25T10:54:04;94699.81;;;30.00;43.25
10462;BME280;5278;42.656;23.374;2023-05-25T10:56:31;94698.75;;;29.82;43.18
10462;BME280;5278;42.656;23.374;2023-05-25T10:59:00;94696.91;;;29.45;44.51
10462;BME280;5278;42.656;23.374;2023-05-25T11:01:29;94704.03;;;29.12;44.94
10462;BME280;5278;42.656;23.374;2023-05-25T11:04:13;94689.59;;;28.89;45.69
10462;BME280;5278;42.656;23.374;2023-05-25T11:07:05;94690.50;;;28.56;46.63
10462;BME280;5278;42.656;23.374;2023-05-25T11:09:40;94702.00;;;28.33;47.44
10462;BME280;5278;42.656;23.374;2023-05-25T11:12:17;94687.72;;;28.18;48.26
10462;BME280;5278;42.656;23.374;2023-05-25T11:15:08;94686.47;;;28.06;48.34
10462;BME280;5278;42.656;23.374;2023-05-25T11:17:56;94690.69;;;27.83;49.80
10462;BME280;5278;42.656;23.374;2023-05-25T11:20:26;94687.16;;;27.59;50.24
10462;BME280;5278;42.656;23.374;2023-05-25T11:22:57;94668.59;;;27.38;50.70
10462;BME280;5278;42.656;23.374;2023-05-25T11:25:38;94671.75;;;27.40;50.84
10462;BME280;5278;42.656;23.374;2023-05-25T11:28:06;94668.81;;;27.42;49.94
10462;BME280;5278;42.656;23.374;2023-05-25T11:30:33;94688.84;;;27.45;50.32
10462;BME280;5278;42.656;23.374;2023-05-25T11:33:01;94689.06;;;27.48;49.91
10462;BME280;5278;42.656;23.374;2023-05-25T11:35:30;94693.03;;;27.56;49.51
10462;BME280;5278;42.656;23.374;2023-05-25T11:38:05;94692.00;;;27.52;47.85
10462;BME280;5278;42.656;23.374;2023-05-25T11:40:32;94665.78;;;27.20;49.21
10462;BME280;5278;42.656;23.374;2023-05-25T11:43:00;94690.38;;;27.56;49.40
10462;BME280;5278;42.656;23.374;2023-05-25T11:45:30;94692.19;;;27.60;49.92
10462;BME280;5278;42.656;23.374;2023-05-25T11:47:57;94691.94;;;27.62;49.25
10462;BME280;5278;42.656;23.374;2023-05-25T11:50:24;94684.47;;;27.59;49.09
10462;BME280;5278;42.656;23.374;2023-05-25T11:52:52;94685.78;;;27.61;48.90
10462;BME280;5278;42.656;23.374;2023-05-25T11:55:21;94685.75;;;27.66;48.76
10462;BME280;5278;42.656;23.374;2023-05-25T11:57:54;94679.28;;;27.72;48.45
10462;BME280;5278;42.656;23.374;2023-05-25T12:00:26;94674.94;;;27.81;48.42
10462;BME280;5278;42.656;23.374;2023-05-25T12:02:54;94678.53;;;27.96;48.32
10462;BME280;5278;42.656;23.374;2023-05-25T12:05:22;94675.47;;;28.12;47.19
10462;BME280;5278;42.656;23.374;2023-05-25T12:07:51;94679.59;;;28.29;47.76
10462;BME280;5278;42.656;23.374;2023-05-25T12:10:18;94679.06;;;28.50;45.78
10462;BME280;5278;42.656;23.374;2023-05-25T12:12:48;94669.28;;;28.64;46.19
10462;BME280;5278;42.656;23.374;2023-05-25T12:15:20;94674.28;;;28.95;44.67
10462;BME280;5278;42.656;23.374;2023-05-25T12:17:48;94670.38;;;29.06;44.59
10462;BME280;5278;42.656;23.374;2023-05-25T12:20:16;94670.69;;;29.23;44.10
10462;BME280;5278;42.656;23.374;2023-05-25T12:22:44;94662.69;;;29.42;43.39
10462;BME280;5278;42.656;23.374;2023-05-25T12:25:13;94647.38;;;29.61;41.93
10462;BME280;5278;42.656;23.374;2023-05-25T12:27:40;94652.91;;;29.83;42.58
10462;BME280;5278;42.656;23.374;2023-05-25T12:30:10;94645.56;;;29.89;40.68
10462;BME280;5278;42.656;23.374;2023-05-25T12:32:52;94633.47;;;29.91;39.84
10462;BME280;5278;42.656;23.374;2023-05-25T12:35:19;94631.66;;;29.87;39.05
10462;BME280;5278;42.656;23.374;2023-05-25T12:37:46;94630.72;;;29.97;39.99
10462;BME280;5278;42.656;23.374;2023-05-25T12:40:17;94628.72;;;29.70;38.41
10462;BME280;5278;42.656;23.374;2023-05-25T12:42:44;94623.72;;;29.31;40.07
10462;BME280;5278;42.656;23.374;2023-05-25T12:45:13;94623.28;;;29.24;40.18
10462;BME280;5278;42.656;23.374;2023-05-25T12:47:44;94614.03;;;29.16;40.27
10462;BME280;5278;42.656;23.374;2023-05-25T12:50:13;94616.41;;;29.18;39.90
10462;BME280;5278;42.656;23.374;2023-05-25T12:52:42;94615.19;;;29.29;39.53
10462;BME280;5278;42.656;23.374;2023-05-25T12:55:19;94610.84;;;29.33;39.72
10462;BME280;5278;42.656;23.374;2023-05-25T12:57:47;94607.09;;;29.34;39.47
10462;BME280;5278;42.656;23.374;2023-05-25T13:00:19;94582.25;;;29.28;39.58
10462;BME280;5278;42.656;23.374;2023-05-25T13:02:46;94601.78;;;29.29;39.55
10462;BME280;5278;42.656;23.374;2023-05-25T13:05:20;94599.06;;;29.34;39.01
10462;BME280;5278;42.656;23.374;2023-05-25T13:07:48;94587.25;;;29.35;38.78